createdAt,value
2018-08-25T00:00:10.082Z,76.80
2018-08-25T00:02:38.559Z,76.80
2018-08-25T00:05:07.267Z,76.80
2018-08-25T00:07:35.744Z,76.60
2018-08-25T00:10:04.435Z,76.50
2018-08-25T00:12:32.942Z,76.30
2018-08-25T00:15:01.411Z,76.40
2018-08-25T00:17:29.895Z,76.60
2018-08-25T00:19:58.444Z,76.50
2018-08-25T00:22:26.929Z,76.30
2018-08-25T00:24:55.406Z,76.30
2018-08-25T00:27:23.929Z,76.70
2018-08-25T00:29:52.506Z,77.10
2018-08-25T00:32:20.979Z,77.80
2018-08-25T00:34:49.486Z,76.80
2018-08-25T00:37:17.952Z,76.80
2018-08-25T00:39:46.458Z,76.90
2018-08-25T00:42:14.999Z,77.40
2018-08-25T00:44:43.486Z,77.50
2018-08-25T00:47:11.964Z,76.90
2018-08-25T00:49:40.463Z,76.10
2018-08-25T00:52:08.987Z,75.70
2018-08-25T00:54:37.517Z,76.00
2018-08-25T00:57:06.066Z,76.50
2018-08-25T00:59:34.593Z,77.90
2018-08-25T01:02:03.050Z,78.90
2018-08-25T01:04:31.639Z,79.80
2018-08-25T01:07:00.158Z,80.70
2018-08-25T01:09:28.632Z,81.40
2018-08-25T01:11:57.111Z,82.40
2018-08-25T01:14:25.566Z,82.90
2018-08-25T01:16:54.030Z,83.30
2018-08-25T01:19:22.602Z,84.00
2018-08-25T01:21:51.142Z,83.90
2018-08-25T01:24:19.599Z,83.80
2018-08-25T01:26:48.104Z,84.00
2018-08-25T01:29:16.570Z,84.00
2018-08-25T01:31:45.039Z,84.20
2018-08-25T01:34:13.670Z,84.30
2018-08-25T01:36:42.121Z,84.20
2018-08-25T01:39:10.590Z,84.50
2018-08-25T01:41:40.447Z,84.60
2018-08-25T01:44:08.952Z,84.70
2018-08-25T01:46:37.422Z,85.10
2018-08-25T01:49:06.035Z,85.60
2018-08-25T01:51:34.518Z,86.20
2018-08-25T01:54:02.998Z,87.30
2018-08-25T01:56:31.486Z,88.70
2018-08-25T01:59:00.114Z,89.20
2018-08-25T02:01:28.578Z,89.50
2018-08-25T02:03:57.066Z,89.30
2018-08-25T02:06:25.530Z,88.20
2018-08-25T02:08:53.990Z,87.30
2018-08-25T02:11:22.547Z,87.10
2018-08-25T02:13:51.088Z,87.60
2018-08-25T02:16:19.514Z,87.70
2018-08-25T02:18:48.046Z,87.40
2018-08-25T02:21:16.570Z,87.40
2018-08-25T02:23:45.074Z,87.40
2018-08-25T02:26:13.606Z,87.20
2018-08-25T02:28:42.080Z,86.90
2018-08-25T02:31:10.539Z,87.00
2018-08-25T02:33:39.014Z,87.20
2018-08-25T02:36:07.490Z,87.30
2018-08-25T02:38:36.025Z,86.70
2018-08-25T02:41:04.722Z,86.70
2018-08-25T02:43:33.164Z,87.30
2018-08-25T02:46:01.617Z,87.50
2018-08-25T02:48:30.107Z,88.00
2018-08-25T02:50:58.578Z,88.60
2018-08-25T02:53:27.038Z,89.00
2018-08-25T02:55:55.582Z,89.50
2018-08-25T02:58:24.114Z,90.20
2018-08-25T03:00:52.595Z,90.50
2018-08-25T03:03:21.906Z,91.10
2018-08-25T03:05:50.446Z,91.60
2018-08-25T03:08:18.893Z,91.90
2018-08-25T03:10:47.682Z,92.00
2018-08-25T03:13:16.144Z,92.00
2018-08-25T03:15:44.587Z,92.30
2018-08-25T03:18:13.087Z,92.50
2018-08-25T03:20:41.542Z,92.70
2018-08-25T03:23:10.012Z,92.80
2018-08-25T03:25:38.526Z,93.20
2018-08-25T03:28:06.978Z,93.40
2018-08-25T03:30:35.451Z,93.50
2018-08-25T03:33:03.955Z,93.20
2018-08-25T03:35:32.411Z,92.70
2018-08-25T03:38:00.890Z,92.00
2018-08-25T03:40:29.386Z,91.40
2018-08-25T03:42:57.861Z,91.20
2018-08-25T03:45:26.314Z,91.10
2018-08-25T03:47:54.846Z,91.10
2018-08-25T03:50:23.310Z,91.00
2018-08-25T03:52:51.759Z,90.80
2018-08-25T03:55:20.297Z,90.60
2018-08-25T03:57:48.776Z,90.70
2018-08-25T04:00:17.262Z,91.20
2018-08-25T04:02:45.778Z,91.80
2018-08-25T04:05:14.243Z,92.50
2018-08-25T04:07:42.778Z,93.10
2018-08-25T04:10:11.307Z,93.60
2018-08-25T04:12:39.758Z,94.10
2018-08-25T04:15:08.491Z,94.90
2018-08-25T04:17:37.062Z,95.60
2018-08-25T04:20:05.654Z,96.50
2018-08-25T04:22:34.838Z,97.10
2018-08-25T04:25:03.367Z,97.80
2018-08-25T04:27:31.883Z,98.40
2018-08-25T04:30:00.378Z,98.90
2018-08-25T04:32:28.933Z,99.20
2018-08-25T04:34:57.390Z,99.80
2018-08-25T04:37:25.878Z,99.90
2018-08-25T04:39:54.456Z,99.90
2018-08-25T04:42:22.902Z,99.90
2018-08-25T04:44:51.346Z,99.80
2018-08-25T04:47:19.942Z,99.50
2018-08-25T04:49:48.486Z,99.10
2018-08-25T04:52:17.111Z,98.80
2018-08-25T04:54:45.662Z,98.80
2018-08-25T04:57:14.199Z,98.90
2018-08-25T04:59:42.658Z,98.40
2018-08-25T05:02:11.143Z,97.80
2018-08-25T05:04:39.590Z,97.00
2018-08-25T05:07:08.060Z,96.00
2018-08-25T05:09:36.592Z,95.20
2018-08-25T05:12:05.054Z,94.80
2018-08-25T05:14:33.510Z,94.50
2018-08-25T05:17:02.126Z,94.20
2018-08-25T05:19:30.593Z,95.10
2018-08-25T05:21:59.198Z,95.30
2018-08-25T05:24:27.615Z,94.70
2018-08-25T05:26:56.099Z,94.80
2018-08-25T05:29:24.560Z,94.20
2018-08-25T05:31:53.050Z,94.00
2018-08-25T05:34:21.518Z,93.50
2018-08-25T05:36:50.016Z,93.20
2018-08-25T05:39:18.530Z,92.90
2018-08-25T05:41:46.978Z,92.30
2018-08-25T05:44:15.545Z,91.60
2018-08-25T05:46:43.970Z,91.20
2018-08-25T05:49:12.430Z,90.50
2018-08-25T05:51:40.904Z,89.70
2018-08-25T05:54:09.423Z,87.60
2018-08-25T05:56:37.963Z,86.10
2018-08-25T05:59:06.433Z,84.60
2018-08-25T06:01:34.994Z,84.10
2018-08-25T06:04:03.454Z,83.80
2018-08-25T06:06:31.960Z,84.90
2018-08-25T06:09:00.446Z,83.60
2018-08-25T06:11:28.975Z,82.80
2018-08-25T06:13:57.459Z,82.10
2018-08-25T06:16:25.958Z,81.20
2018-08-25T06:18:54.443Z,81.50
2018-08-25T06:21:22.904Z,82.80
2018-08-25T06:23:51.457Z,84.50
2018-08-25T06:26:19.922Z,85.40
2018-08-25T06:28:48.510Z,86.00
2018-08-25T06:31:17.019Z,84.80
2018-08-25T06:33:45.488Z,84.60
2018-08-25T06:36:13.942Z,85.30
2018-08-25T06:38:42.474Z,84.00
2018-08-25T06:41:10.923Z,83.10
2018-08-25T06:43:39.502Z,81.40
2018-08-25T06:46:09.129Z,80.80
2018-08-25T06:48:40.190Z,80.70
2018-08-25T06:51:08.687Z,78.60
2018-08-25T06:53:37.742Z,78.60
2018-08-25T06:56:06.255Z,78.00
2018-08-25T06:58:34.731Z,77.70
2018-08-25T07:01:03.317Z,78.10
2018-08-25T07:03:31.793Z,77.50
2018-08-25T07:06:00.281Z,76.30
2018-08-25T07:08:28.776Z,75.40
2018-08-25T07:10:57.278Z,75.70
2018-08-25T07:13:25.730Z,76.80
2018-08-25T07:15:54.221Z,77.60
2018-08-25T07:18:22.692Z,76.10
2018-08-25T07:20:51.151Z,76.50
2018-08-25T07:23:19.665Z,76.20
2018-08-25T07:25:48.523Z,76.40
2018-08-25T07:28:16.954Z,76.10
2018-08-25T07:30:45.530Z,76.20
2018-08-25T07:33:14.085Z,76.90
2018-08-25T07:35:42.530Z,76.00
2018-08-25T07:38:11.120Z,76.70
2018-08-25T07:40:39.544Z,76.90
2018-08-25T07:43:08.003Z,75.80
2018-08-25T07:45:36.496Z,75.50
2018-08-25T07:48:04.999Z,75.80
2018-08-25T07:50:33.476Z,75.80
2018-08-25T07:53:01.958Z,75.90
2018-08-25T07:55:30.433Z,74.90
2018-08-25T07:57:58.898Z,75.10
2018-08-25T08:00:27.384Z,75.40
2018-08-25T08:02:55.887Z,73.90
2018-08-25T08:05:24.401Z,73.70
2018-08-25T08:07:52.997Z,72.40
2018-08-25T08:10:21.506Z,73.00
2018-08-25T08:12:49.965Z,73.10
2018-08-25T08:15:18.499Z,70.10
2018-08-25T08:17:47.106Z,68.20
2018-08-25T08:20:15.602Z,69.30
2018-08-25T08:22:44.098Z,70.40
2018-08-25T08:25:12.579Z,69.50
2018-08-25T08:27:41.063Z,66.80
2018-08-25T08:30:09.674Z,65.30
2018-08-25T08:32:38.140Z,65.30
2018-08-25T08:35:06.738Z,66.90
2018-08-25T08:37:35.284Z,66.70
2018-08-25T08:40:03.799Z,67.30
2018-08-25T08:42:32.281Z,68.10
2018-08-25T08:45:00.778Z,68.50
2018-08-25T08:47:29.347Z,66.80
2018-08-25T08:49:57.805Z,65.50
2018-08-25T08:52:26.306Z,65.50
2018-08-25T08:54:54.797Z,64.20
2018-08-25T08:57:23.234Z,63.80
2018-08-25T08:59:51.775Z,63.70
2018-08-25T09:02:20.254Z,64.50
2018-08-25T09:04:48.734Z,65.10
2018-08-25T09:07:17.222Z,63.90
2018-08-25T09:09:45.710Z,63.30
2018-08-25T09:12:14.166Z,62.60
2018-08-25T09:14:42.701Z,62.60
2018-08-25T09:17:11.154Z,61.10
2018-08-25T09:19:39.643Z,60.10
2018-08-25T09:22:08.146Z,59.40
2018-08-25T09:24:36.612Z,58.80
2018-08-25T09:27:05.263Z,59.10
2018-08-25T09:29:33.838Z,60.30
2018-08-25T09:32:02.740Z,60.70
2018-08-25T09:34:31.186Z,59.50
2018-08-25T09:36:59.816Z,61.60
2018-08-25T09:39:28.153Z,63.00
2018-08-25T09:41:56.665Z,66.90
2018-08-25T09:44:25.220Z,68.80
2018-08-25T09:46:53.681Z,73.10
2018-08-25T09:49:22.127Z,75.20
2018-08-25T09:51:50.632Z,77.00
2018-08-25T09:54:19.099Z,74.30
2018-08-25T09:56:47.606Z,75.00
2018-08-25T09:59:16.134Z,77.60
2018-08-25T10:01:49.710Z,80.10
2018-08-25T10:04:18.186Z,82.00
2018-08-25T10:06:46.670Z,84.20
2018-08-25T10:09:15.134Z,84.60
2018-08-25T10:11:43.642Z,85.10
2018-08-25T10:14:12.138Z,88.50
2018-08-25T10:16:40.735Z,90.90
2018-08-25T10:19:09.234Z,93.20
2018-08-25T10:21:37.890Z,95.80
2018-08-25T10:24:06.495Z,99.30
2018-08-25T10:26:35.681Z,99.90
2018-08-25T10:29:04.297Z,99.90
2018-08-25T10:31:32.877Z,99.90
2018-08-25T10:34:01.427Z,99.90
2018-08-25T10:36:29.898Z,99.90
2018-08-25T10:38:58.606Z,99.90
2018-08-25T10:41:27.181Z,99.90
2018-08-25T10:43:55.642Z,99.90
2018-08-25T10:46:24.096Z,99.90
2018-08-25T10:48:52.610Z,99.90
2018-08-25T10:51:21.082Z,99.90
2018-08-25T10:53:49.621Z,94.60
2018-08-25T10:56:18.123Z,93.30
2018-08-25T10:58:46.570Z,91.80
2018-08-25T11:01:15.117Z,90.80
2018-08-25T11:03:43.574Z,89.00
2018-08-25T11:06:12.074Z,89.00
2018-08-25T11:08:40.567Z,88.90
2018-08-25T11:11:09.138Z,88.10
2018-08-25T11:13:37.621Z,88.90
2018-08-25T11:16:06.106Z,81.60
2018-08-25T11:18:34.694Z,79.50
2018-08-25T11:21:03.246Z,74.90
2018-08-25T11:23:31.792Z,74.00
2018-08-25T11:26:00.266Z,75.70
2018-08-25T11:28:28.709Z,74.10
2018-08-25T11:30:57.194Z,75.10
2018-08-25T11:33:25.704Z,74.60
2018-08-25T11:35:54.154Z,75.70
2018-08-25T11:38:22.634Z,75.00
2018-08-25T11:40:51.155Z,75.50
2018-08-25T11:43:19.615Z,75.50
2018-08-25T11:45:48.122Z,73.40
2018-08-25T11:48:16.698Z,72.80
2018-08-25T11:50:45.162Z,71.10
2018-08-25T11:53:13.662Z,71.90
2018-08-25T11:55:42.149Z,71.30
2018-08-25T11:58:10.646Z,69.50
2018-08-25T12:00:39.182Z,70.50
2018-08-25T12:03:07.673Z,72.10
2018-08-25T12:05:36.148Z,73.10
2018-08-25T12:08:04.650Z,73.50
2018-08-25T12:10:33.186Z,72.50
2018-08-25T12:13:01.647Z,73.60
2018-08-25T12:15:30.109Z,74.50
2018-08-25T12:17:58.703Z,74.50
2018-08-25T12:20:27.246Z,74.60
2018-08-25T12:22:55.754Z,75.60
2018-08-25T12:25:24.260Z,74.00
2018-08-25T12:27:52.718Z,72.80
2018-08-25T12:30:21.198Z,72.30
2018-08-25T12:32:49.686Z,73.40
2018-08-25T12:35:18.152Z,73.00
2018-08-25T12:37:46.687Z,74.80
2018-08-25T12:40:15.206Z,74.70
2018-08-25T12:42:43.688Z,75.30
2018-08-25T12:45:12.252Z,73.20
2018-08-25T12:47:40.686Z,72.60
2018-08-25T12:50:09.160Z,73.50
2018-08-25T12:52:37.604Z,69.00
2018-08-25T12:55:06.347Z,69.70
2018-08-25T12:57:34.827Z,69.90
2018-08-25T13:00:03.441Z,70.60
2018-08-25T13:02:32.059Z,71.60
2018-08-25T13:05:00.572Z,73.00
2018-08-25T13:07:29.105Z,72.90
2018-08-25T13:09:57.722Z,73.50
2018-08-25T13:12:26.254Z,71.30
2018-08-25T13:14:54.738Z,71.40
2018-08-25T13:17:23.390Z,72.60
2018-08-25T13:19:52.022Z,71.40
2018-08-25T13:22:20.511Z,71.80
2018-08-25T13:24:49.145Z,72.80
2018-08-25T13:27:17.631Z,73.50
2018-08-25T13:29:52.691Z,76.50
2018-08-25T13:32:27.373Z,78.70
2018-08-25T13:37:59.580Z,89.20
2018-08-25T13:40:32.181Z,94.20
2018-08-25T13:43:19.505Z,98.60
2018-08-25T13:45:58.067Z,99.90
2018-08-25T13:48:39.658Z,99.90
2018-08-25T13:56:56.132Z,99.90
2018-08-25T13:59:24.979Z,99.90
2018-08-25T14:01:53.511Z,99.90
2018-08-25T14:04:22.170Z,99.90
2018-08-25T14:06:50.776Z,99.90
2018-08-25T14:09:19.316Z,99.90
2018-08-25T14:11:47.844Z,99.90
2018-08-25T14:14:16.410Z,99.90
2018-08-25T14:16:44.934Z,99.90
2018-08-25T14:19:13.657Z,99.90
2018-08-25T14:21:42.170Z,99.90
2018-08-25T14:24:11.226Z,99.90
2018-08-25T14:26:39.743Z,99.90
2018-08-25T14:29:08.252Z,99.90
2018-08-25T14:31:36.742Z,99.90
2018-08-25T14:34:05.390Z,99.90
2018-08-25T14:36:33.958Z,99.90
2018-08-25T14:39:02.486Z,99.90
2018-08-25T14:41:31.003Z,99.90
2018-08-25T14:43:59.474Z,99.90
2018-08-25T14:46:27.955Z,99.90
2018-08-25T14:48:56.475Z,99.90
2018-08-25T14:51:24.934Z,99.90
2018-08-25T14:53:53.419Z,99.90
2018-08-25T14:56:22.000Z,99.90
2018-08-25T14:58:50.517Z,99.90
2018-08-25T15:01:19.070Z,99.90
2018-08-25T15:03:47.614Z,99.90
2018-08-25T15:06:16.099Z,99.90
2018-08-25T15:08:44.578Z,99.90
2018-08-25T15:11:13.131Z,99.90
2018-08-25T15:13:41.601Z,99.90
2018-08-25T15:16:10.070Z,99.90
2018-08-25T15:18:38.597Z,99.90
2018-08-25T15:21:07.337Z,99.90
2018-08-25T15:23:35.847Z,99.90
2018-08-25T15:26:04.834Z,99.90
2018-08-25T15:28:33.384Z,99.90
2018-08-25T15:31:02.328Z,99.90
2018-08-25T15:33:31.047Z,99.90
2018-08-25T15:36:04.267Z,99.90
2018-08-25T15:38:38.082Z,99.90
2018-08-25T15:41:09.173Z,99.90
2018-08-25T15:43:37.899Z,99.90
2018-08-25T15:46:09.639Z,99.90
2018-08-25T15:48:38.182Z,99.90
2018-08-25T15:51:06.731Z,99.90
2018-08-25T15:53:35.275Z,99.90
2018-08-25T15:56:03.890Z,99.90
2018-08-25T15:58:40.446Z,99.90
2018-08-25T16:01:09.301Z,99.90
2018-08-25T16:03:37.852Z,99.90
2018-08-25T16:06:06.978Z,99.90
2018-08-25T16:08:35.434Z,99.90
2018-08-25T16:11:03.923Z,99.90
2018-08-25T16:13:32.439Z,99.90
2018-08-25T16:16:01.019Z,99.90
2018-08-25T16:18:29.515Z,99.90
2018-08-25T16:20:58.051Z,99.90
2018-08-25T16:23:26.617Z,99.90
2018-08-25T16:25:55.125Z,99.90
2018-08-25T16:28:23.984Z,99.90
2018-08-25T16:30:52.645Z,99.90
2018-08-25T16:33:21.215Z,99.90
2018-08-25T16:35:49.801Z,99.90
2018-08-25T16:38:18.326Z,99.90
2018-08-25T16:40:46.818Z,99.90
2018-08-25T16:43:15.398Z,99.90
2018-08-25T16:45:43.883Z,99.90
2018-08-25T16:48:12.370Z,99.90
2018-08-25T16:50:41.054Z,99.90
2018-08-25T16:53:09.549Z,99.90
2018-08-25T16:55:38.263Z,99.90
2018-08-25T16:58:06.975Z,99.90
2018-08-25T17:00:35.494Z,99.90
2018-08-25T17:03:05.169Z,99.90
2018-08-25T17:05:33.698Z,99.90
2018-08-25T17:08:06.407Z,99.90
2018-08-25T17:10:41.136Z,99.90
2018-08-25T17:13:09.694Z,99.90
2018-08-25T17:15:38.190Z,99.90
2018-08-25T17:18:06.758Z,99.90
2018-08-25T17:20:35.229Z,99.90
2018-08-25T17:23:03.787Z,99.90
2018-08-25T17:25:32.294Z,99.90
2018-08-25T17:28:00.755Z,99.90
2018-08-25T17:30:29.252Z,99.90
2018-08-25T17:32:57.760Z,99.90
2018-08-25T17:35:26.270Z,99.90
2018-08-25T17:37:54.846Z,99.90
2018-08-25T17:40:23.334Z,99.90
2018-08-25T17:42:51.790Z,99.90
2018-08-25T17:45:20.371Z,99.90
2018-08-25T17:47:48.911Z,99.90
2018-08-25T17:50:17.386Z,99.90
2018-08-25T17:52:45.879Z,99.90
2018-08-25T17:55:14.551Z,99.90
2018-08-25T17:57:43.193Z,99.90
2018-08-25T18:00:13.438Z,99.90
2018-08-25T18:02:41.972Z,99.90
2018-08-25T18:05:10.706Z,99.90
2018-08-25T18:07:39.231Z,99.90
2018-08-25T18:10:07.768Z,99.90
2018-08-25T18:12:36.294Z,99.90
2018-08-25T18:15:04.915Z,99.90
2018-08-25T18:17:33.514Z,99.90
2018-08-25T18:20:01.971Z,99.90
2018-08-25T18:22:30.501Z,99.90
2018-08-25T18:24:59.022Z,99.90
2018-08-25T18:27:27.478Z,99.90
2018-08-25T18:29:56.175Z,99.90
2018-08-25T18:32:24.759Z,99.90
2018-08-25T18:34:53.259Z,99.90
2018-08-25T18:37:21.724Z,99.90
2018-08-25T18:39:50.239Z,99.90
2018-08-25T18:42:18.771Z,99.90
2018-08-25T18:44:47.274Z,99.90
2018-08-25T18:47:15.778Z,99.90
2018-08-25T18:49:44.246Z,99.90
2018-08-25T18:52:12.718Z,99.90
2018-08-25T18:54:41.367Z,99.90
2018-08-25T18:57:09.809Z,99.90
2018-08-25T18:59:38.415Z,99.90
2018-08-25T19:02:07.096Z,99.90
2018-08-25T19:04:35.486Z,99.90
2018-08-25T19:07:03.966Z,99.90
2018-08-25T19:09:32.500Z,99.90
2018-08-25T19:12:00.979Z,99.90
2018-08-25T19:14:29.454Z,99.90
2018-08-25T19:16:57.943Z,99.90
2018-08-25T19:19:26.434Z,99.90
2018-08-25T19:21:54.923Z,99.90
2018-08-25T19:24:23.459Z,99.90
2018-08-25T19:26:51.995Z,99.90
2018-08-25T19:29:20.471Z,99.90
2018-08-25T19:31:49.082Z,99.90
2018-08-25T19:34:17.638Z,99.90
2018-08-25T19:36:46.119Z,99.90
2018-08-25T19:39:14.616Z,99.90
2018-08-25T19:41:43.123Z,99.90
2018-08-25T19:44:11.609Z,99.90
2018-08-25T19:46:40.142Z,99.90
2018-08-25T19:49:08.606Z,99.90
2018-08-25T19:51:37.119Z,99.90
2018-08-25T19:54:05.901Z,99.90
2018-08-25T19:56:34.394Z,99.90
2018-08-25T19:59:02.895Z,99.90
2018-08-25T20:01:31.406Z,99.90
2018-08-25T20:03:59.903Z,99.90
2018-08-25T20:06:28.370Z,99.90
2018-08-25T20:08:56.906Z,99.90
2018-08-25T20:11:29.270Z,99.90
2018-08-25T20:13:57.742Z,99.90
2018-08-25T20:16:26.364Z,99.90
2018-08-25T20:18:54.862Z,99.90
2018-08-25T20:21:23.395Z,99.90
2018-08-25T20:23:51.978Z,99.90
2018-08-25T20:26:21.035Z,99.90
2018-08-25T20:28:49.554Z,99.90
2018-08-25T20:31:18.055Z,99.90
2018-08-25T20:33:46.558Z,99.90
2018-08-25T20:36:15.274Z,99.90
2018-08-25T20:38:43.799Z,99.90
2018-08-25T20:41:12.254Z,99.90
2018-08-25T20:43:40.731Z,99.90
2018-08-25T20:46:12.735Z,99.90
2018-08-25T20:48:41.202Z,99.90
2018-08-25T20:51:09.658Z,99.90
2018-08-25T20:53:38.182Z,99.90
2018-08-25T20:56:06.698Z,99.90
2018-08-25T20:58:35.177Z,99.90
2018-08-25T21:01:03.697Z,99.90
2018-08-25T21:03:32.151Z,99.90
2018-08-25T21:06:00.655Z,99.90
2018-08-25T21:08:29.143Z,99.90
2018-08-25T21:10:57.792Z,99.90
2018-08-25T21:13:26.242Z,99.90
2018-08-25T21:15:54.823Z,99.90
2018-08-25T21:18:23.239Z,99.90
2018-08-25T21:20:51.698Z,99.90
2018-08-25T21:23:20.205Z,99.90
2018-08-25T21:25:48.702Z,99.90
2018-08-25T21:28:17.146Z,99.90
2018-08-25T21:30:45.656Z,99.90
2018-08-25T21:33:14.151Z,99.90
2018-08-25T21:35:42.607Z,99.90
2018-08-25T21:38:11.329Z,99.90
2018-08-25T21:40:39.808Z,99.90
2018-08-25T21:43:08.275Z,99.90
2018-08-25T21:45:36.778Z,99.90
2018-08-25T21:48:05.256Z,99.90
2018-08-25T21:50:33.737Z,99.90
2018-08-25T21:53:02.250Z,99.90
2018-08-25T21:55:30.711Z,99.90
2018-08-25T21:57:59.178Z,99.90
2018-08-25T22:00:27.852Z,99.90
2018-08-25T22:02:56.334Z,99.90
2018-08-25T22:05:24.823Z,99.90
2018-08-25T22:07:53.354Z,99.90
2018-08-25T22:10:21.855Z,99.90
2018-08-25T22:12:50.310Z,99.90
2018-08-25T22:15:18.791Z,99.90
2018-08-25T22:17:47.258Z,99.90
2018-08-25T22:20:15.726Z,99.90
2018-08-25T22:22:44.245Z,99.90
2018-08-25T22:25:12.688Z,99.90
2018-08-25T22:27:41.198Z,99.90
2018-08-25T22:30:09.738Z,99.90
2018-08-25T22:32:38.194Z,99.90
2018-08-25T22:35:06.678Z,99.90
2018-08-25T22:37:35.183Z,99.90
2018-08-25T22:40:03.707Z,99.90
2018-08-25T22:42:32.167Z,99.90
2018-08-25T22:45:00.690Z,99.90
2018-08-25T22:47:29.155Z,99.90
2018-08-25T22:49:57.641Z,99.90
2018-08-25T22:52:31.487Z,99.90
2018-08-25T22:54:59.998Z,99.90
2018-08-25T22:57:28.463Z,99.90
2018-08-25T22:59:57.015Z,99.90
2018-08-25T23:02:25.559Z,99.90
2018-08-25T23:04:54.034Z,99.90
2018-08-25T23:07:22.540Z,99.90
2018-08-25T23:09:54.207Z,99.90
2018-08-25T23:12:22.710Z,99.90
2018-08-25T23:14:51.198Z,99.90
2018-08-25T23:17:19.973Z,99.90
2018-08-25T23:19:48.487Z,99.90
2018-08-25T23:22:16.998Z,99.90
2018-08-25T23:24:45.483Z,99.90
2018-08-25T23:27:13.966Z,99.90
2018-08-25T23:29:42.586Z,99.90
2018-08-25T23:32:11.059Z,99.90
2018-08-25T23:34:39.518Z,99.90
2018-08-25T23:37:08.038Z,99.90
2018-08-25T23:39:36.498Z,99.90
2018-08-25T23:42:05.010Z,99.90
2018-08-25T23:44:33.510Z,99.90
2018-08-25T23:47:02.026Z,99.90
2018-08-25T23:49:30.914Z,99.90
2018-08-25T23:51:59.391Z,99.90
2018-08-25T23:54:27.862Z,99.90
2018-08-25T23:56:56.354Z,99.90
2018-08-25T23:59:24.823Z,99.90
